createdAt,value
2019-05-18T00:00:32.856Z,14.36
2019-05-18T00:01:32.837Z,14.36
2019-05-18T00:02:32.829Z,14.35
2019-05-18T00:03:32.812Z,14.23
2019-05-18T00:04:32.832Z,14.28
2019-05-18T00:05:32.796Z,14.30
2019-05-18T00:06:32.785Z,14.30
2019-05-18T00:07:32.767Z,14.28
2019-05-18T00:08:32.753Z,14.25
2019-05-18T00:09:32.811Z,14.18
2019-05-18T00:10:32.765Z,14.25
2019-05-18T00:11:32.727Z,14.25
2019-05-18T00:12:32.720Z,14.23
2019-05-18T00:13:32.699Z,14.18
2019-05-18T00:14:32.693Z,14.23
2019-05-18T00:15:32.691Z,14.26
2019-05-18T00:16:32.676Z,14.17
2019-05-18T00:17:32.683Z,14.23
2019-05-18T00:18:32.669Z,14.14
2019-05-18T00:19:32.643Z,14.18
2019-05-18T00:20:32.625Z,14.14
2019-05-18T00:21:32.625Z,14.20
2019-05-18T00:22:32.611Z,14.07
2019-05-18T00:23:32.605Z,14.04
2019-05-18T00:24:32.583Z,14.12
2019-05-18T00:25:32.573Z,14.04
2019-05-18T00:26:32.573Z,14.12
2019-05-18T00:27:32.573Z,14.10
2019-05-18T00:28:32.564Z,14.10
2019-05-18T00:29:32.552Z,14.04
2019-05-18T00:30:32.522Z,14.14
2019-05-18T00:31:32.520Z,14.03
2019-05-18T00:32:34.032Z,14.10
2019-05-18T00:33:32.498Z,14.07
2019-05-18T00:34:33.362Z,14.08
2019-05-18T00:35:33.376Z,14.12
2019-05-18T00:36:32.487Z,14.11
2019-05-18T00:37:33.373Z,14.08
2019-05-18T00:38:33.615Z,14.15
2019-05-18T00:39:33.438Z,14.08
2019-05-18T00:40:32.435Z,14.10
2019-05-18T00:41:32.395Z,14.00
2019-05-18T00:42:32.557Z,13.96
2019-05-18T00:43:32.372Z,13.97
2019-05-18T00:44:32.359Z,14.03
2019-05-18T00:45:32.367Z,13.95
2019-05-18T00:46:32.347Z,13.86
2019-05-18T00:47:41.002Z,13.97
2019-05-18T00:48:33.319Z,13.87
2019-05-18T00:49:32.311Z,13.93
2019-05-18T00:50:32.298Z,13.87
2019-05-18T00:51:32.303Z,13.92
2019-05-18T00:52:32.471Z,13.89
2019-05-18T00:53:32.264Z,13.83
2019-05-18T00:54:32.252Z,13.89
2019-05-18T00:55:32.253Z,13.83
2019-05-18T00:56:32.247Z,13.86
2019-05-18T00:57:32.221Z,13.85
2019-05-18T00:58:32.201Z,13.83
2019-05-18T00:59:32.216Z,13.75
2019-05-18T01:00:32.184Z,13.86
2019-05-18T01:01:32.173Z,13.74
2019-05-18T01:02:32.171Z,13.78
2019-05-18T01:03:32.159Z,13.75
2019-05-18T01:04:32.145Z,13.75
2019-05-18T01:05:32.129Z,13.85
2019-05-18T01:06:32.931Z,13.85
2019-05-18T01:07:32.109Z,13.92
2019-05-18T01:08:32.879Z,13.79
2019-05-18T01:09:32.091Z,13.86
2019-05-18T01:10:32.067Z,13.86
2019-05-18T01:11:32.059Z,13.85
2019-05-18T01:12:32.062Z,13.79
2019-05-18T01:13:32.042Z,13.72
2019-05-18T01:14:32.027Z,13.78
2019-05-18T01:15:32.021Z,13.79
2019-05-18T01:16:31.998Z,13.62
2019-05-18T01:17:31.994Z,13.70
2019-05-18T01:18:31.981Z,13.59
2019-05-18T01:19:31.981Z,13.67
2019-05-18T01:20:31.973Z,13.57
2019-05-18T01:21:31.968Z,13.72
2019-05-18T01:22:31.936Z,13.74
2019-05-18T01:23:31.945Z,13.62
2019-05-18T01:24:31.918Z,13.63
2019-05-18T01:25:31.905Z,13.62
2019-05-18T01:26:31.901Z,13.70
2019-05-18T01:27:31.882Z,13.60
2019-05-18T01:28:31.881Z,13.65
2019-05-18T01:29:31.856Z,13.71
2019-05-18T01:30:31.841Z,13.70
2019-05-18T01:31:31.842Z,13.75
2019-05-18T01:32:31.825Z,13.68
2019-05-18T01:33:31.811Z,13.75
2019-05-18T01:34:31.801Z,13.81
2019-05-18T01:35:31.792Z,13.81
2019-05-18T01:36:31.814Z,13.79
2019-05-18T01:37:31.775Z,13.75
2019-05-18T01:38:31.753Z,13.79
2019-05-18T01:39:31.741Z,13.75
2019-05-18T01:40:31.736Z,13.75
2019-05-18T01:41:31.722Z,13.79
2019-05-18T01:42:31.706Z,13.79
2019-05-18T01:43:31.699Z,13.75
2019-05-18T01:44:31.690Z,13.70
2019-05-18T01:45:31.684Z,13.72
2019-05-18T01:46:31.674Z,13.70
2019-05-18T01:47:31.661Z,13.71
2019-05-18T01:48:31.646Z,13.75
2019-05-18T01:49:31.631Z,13.59
2019-05-18T01:50:31.625Z,13.62
2019-05-18T01:51:31.615Z,13.62
2019-05-18T01:52:31.606Z,13.63
2019-05-18T01:53:31.596Z,13.53
2019-05-18T01:54:31.590Z,13.54
2019-05-18T01:55:31.570Z,13.60
2019-05-18T01:56:31.555Z,13.50
2019-05-18T01:57:31.544Z,13.54
2019-05-18T01:58:31.537Z,13.53
2019-05-18T01:59:31.530Z,13.54
2019-05-18T02:00:31.515Z,13.56
2019-05-18T02:01:31.503Z,13.59
2019-05-18T02:02:31.491Z,13.62
2019-05-18T02:03:31.497Z,13.57
2019-05-18T02:04:31.487Z,13.57
2019-05-18T02:05:31.463Z,13.53
2019-05-18T02:06:31.456Z,13.59
2019-05-18T02:07:31.432Z,13.52
2019-05-18T02:08:31.424Z,13.63
2019-05-18T02:09:31.438Z,13.56
2019-05-18T02:10:31.420Z,13.49
2019-05-18T02:11:31.401Z,13.50
2019-05-18T02:12:31.408Z,13.41
2019-05-18T02:13:31.383Z,13.50
2019-05-18T02:14:31.382Z,13.53
2019-05-18T02:15:31.344Z,13.50
2019-05-18T02:16:31.331Z,13.52
2019-05-18T02:17:31.318Z,13.50
2019-05-18T02:18:31.310Z,13.53
2019-05-18T02:19:31.303Z,13.47
2019-05-18T02:20:31.306Z,13.50
2019-05-18T02:21:31.289Z,13.53
2019-05-18T02:22:31.280Z,13.49
2019-05-18T02:23:31.265Z,13.49
2019-05-18T02:24:31.253Z,13.42
2019-05-18T02:25:31.236Z,13.52
2019-05-18T02:26:31.222Z,13.52
2019-05-18T02:27:31.220Z,13.47
2019-05-18T02:28:31.198Z,13.44
2019-05-18T02:29:31.192Z,13.46
2019-05-18T02:30:31.182Z,13.44
2019-05-18T02:31:31.169Z,13.42
2019-05-18T02:32:31.165Z,13.44
2019-05-18T02:33:31.157Z,13.46
2019-05-18T02:34:31.136Z,13.38
2019-05-18T02:35:31.150Z,13.39
2019-05-18T02:36:31.113Z,13.39
2019-05-18T02:37:31.107Z,13.41
2019-05-18T02:38:31.096Z,13.39
2019-05-18T02:39:31.085Z,13.38
2019-05-18T02:40:31.067Z,13.41
2019-05-18T02:41:31.072Z,13.38
2019-05-18T02:42:31.086Z,13.38
2019-05-18T02:43:31.040Z,13.30
2019-05-18T02:44:31.024Z,13.25
2019-05-18T02:45:31.011Z,13.16
2019-05-18T02:46:31.002Z,13.19
2019-05-18T02:47:30.987Z,13.16
2019-05-18T02:48:47.838Z,13.20
2019-05-18T02:49:31.974Z,13.16
2019-05-18T02:50:31.010Z,13.28
2019-05-18T02:51:30.951Z,13.25
2019-05-18T02:52:30.941Z,13.27
2019-05-18T02:53:30.944Z,13.31
2019-05-18T02:54:30.941Z,13.30
2019-05-18T02:55:30.901Z,13.27
2019-05-18T02:56:30.894Z,13.37
2019-05-18T02:57:30.879Z,13.33
2019-05-18T02:58:30.871Z,13.18
2019-05-18T02:59:30.866Z,13.16
2019-05-18T03:00:30.891Z,13.19
2019-05-18T03:01:30.850Z,13.12
2019-05-18T03:02:30.823Z,13.13
2019-05-18T03:03:30.835Z,13.04
2019-05-18T03:04:30.805Z,13.12
2019-05-18T03:05:30.792Z,13.09
2019-05-18T03:06:30.791Z,13.13
2019-05-18T03:07:30.777Z,13.05
2019-05-18T03:08:30.781Z,13.13
2019-05-18T03:09:30.749Z,13.05
2019-05-18T03:10:30.734Z,13.00
2019-05-18T03:11:30.727Z,13.03
2019-05-18T03:12:30.717Z,13.00
2019-05-18T03:13:30.700Z,12.95
2019-05-18T03:14:30.690Z,12.83
2019-05-18T03:15:30.693Z,12.86
2019-05-18T03:16:30.673Z,12.86
2019-05-18T03:17:30.666Z,12.87
2019-05-18T03:18:30.662Z,12.86
2019-05-18T03:19:30.639Z,12.83
2019-05-18T03:20:30.645Z,12.82
2019-05-18T03:21:30.614Z,12.90
2019-05-18T03:22:30.608Z,12.87
2019-05-18T03:23:30.589Z,12.86
2019-05-18T03:24:30.581Z,12.85
2019-05-18T03:25:30.573Z,13.01
2019-05-18T03:26:30.556Z,12.97
2019-05-18T03:27:30.541Z,12.97
2019-05-18T03:28:30.547Z,13.04
2019-05-18T03:29:30.528Z,13.03
2019-05-18T03:30:30.523Z,13.04
2019-05-18T03:31:30.537Z,13.03
2019-05-18T03:32:30.510Z,13.08
2019-05-18T03:33:30.815Z,12.98
2019-05-18T03:34:30.483Z,13.00
2019-05-18T03:35:30.469Z,12.97
2019-05-18T03:36:30.470Z,12.93
2019-05-18T03:37:30.433Z,12.87
2019-05-18T03:38:30.421Z,12.85
2019-05-18T03:39:30.407Z,12.85
2019-05-18T03:40:30.412Z,12.83
2019-05-18T03:41:30.388Z,12.79
2019-05-18T03:42:30.386Z,12.78
2019-05-18T03:43:30.375Z,12.76
2019-05-18T03:44:30.350Z,12.86
2019-05-18T03:45:30.367Z,12.90
2019-05-18T03:46:30.336Z,12.98
2019-05-18T03:47:30.319Z,12.97
2019-05-18T03:48:30.329Z,13.01
2019-05-18T03:49:30.301Z,13.05
2019-05-18T03:50:30.296Z,13.11
2019-05-18T03:51:30.285Z,13.13
2019-05-18T03:52:30.321Z,13.03
2019-05-18T03:53:30.265Z,13.01
2019-05-18T03:54:30.239Z,13.05
2019-05-18T03:55:30.233Z,13.03
2019-05-18T03:56:30.229Z,13.18
2019-05-18T03:57:30.218Z,13.11
2019-05-18T03:58:30.219Z,13.01
2019-05-18T03:59:30.180Z,13.03
2019-05-18T04:00:30.176Z,13.05
2019-05-18T04:01:30.170Z,13.00
2019-05-18T04:02:30.175Z,12.97
2019-05-18T04:03:30.151Z,12.97
2019-05-18T04:04:30.131Z,12.97
2019-05-18T04:05:30.118Z,12.83
2019-05-18T04:06:30.105Z,12.86
2019-05-18T04:07:30.114Z,12.97
2019-05-18T04:08:30.093Z,12.91
2019-05-18T04:09:30.078Z,12.91
2019-05-18T04:10:30.064Z,12.86
2019-05-18T04:11:30.073Z,12.86
2019-05-18T04:12:30.034Z,12.86
2019-05-18T04:13:30.025Z,12.83
2019-05-18T04:14:30.025Z,12.86
2019-05-18T04:15:30.097Z,12.97
2019-05-18T04:16:30.067Z,12.83
2019-05-18T04:17:29.986Z,12.82
2019-05-18T04:18:29.985Z,12.86
2019-05-18T04:19:44.681Z,12.97
2019-05-18T04:20:30.961Z,13.00
2019-05-18T04:21:29.935Z,12.98
2019-05-18T04:22:29.921Z,13.04
2019-05-18T04:23:29.918Z,13.05
2019-05-18T04:24:30.021Z,12.95
2019-05-18T04:25:29.903Z,13.00
2019-05-18T04:26:29.886Z,13.05
2019-05-18T04:27:29.878Z,13.01
2019-05-18T04:28:29.862Z,13.04
2019-05-18T04:29:29.855Z,13.01
2019-05-18T04:30:29.854Z,13.05
2019-05-18T04:31:32.418Z,12.98
2019-05-18T04:32:29.826Z,12.95
2019-05-18T04:33:29.809Z,12.95
2019-05-18T04:34:29.794Z,12.97
2019-05-18T04:35:29.783Z,12.97
2019-05-18T04:36:29.775Z,13.09
2019-05-18T04:37:29.762Z,12.94
2019-05-18T04:38:29.745Z,12.95
2019-05-18T04:39:29.744Z,13.08
2019-05-18T04:40:29.726Z,13.08
2019-05-18T04:41:29.771Z,13.08
2019-05-18T04:42:29.717Z,13.08
2019-05-18T04:43:29.779Z,13.03
2019-05-18T04:44:29.682Z,13.09
2019-05-18T04:45:29.732Z,13.00
2019-05-18T04:46:29.668Z,13.00
2019-05-18T04:47:29.772Z,13.03
2019-05-18T04:48:29.639Z,13.00
2019-05-18T04:49:29.771Z,13.03
2019-05-18T04:50:29.613Z,13.03
2019-05-18T04:51:29.601Z,12.98
2019-05-18T04:52:29.605Z,13.05
2019-05-18T04:53:29.592Z,13.05
2019-05-18T04:54:29.576Z,13.00
2019-05-18T04:55:29.582Z,13.03
2019-05-18T04:56:29.548Z,13.00
2019-05-18T04:57:29.540Z,13.03
2019-05-18T04:58:29.531Z,12.86
2019-05-18T04:59:29.515Z,12.94
2019-05-18T05:00:29.510Z,12.97
2019-05-18T05:01:29.506Z,12.97
2019-05-18T05:02:29.485Z,12.97
2019-05-18T05:03:29.480Z,12.94
2019-05-18T05:04:29.466Z,12.98
2019-05-18T05:05:29.457Z,12.87
2019-05-18T05:06:29.440Z,12.82
2019-05-18T05:07:29.425Z,12.86
2019-05-18T05:08:29.424Z,12.83
2019-05-18T05:09:29.405Z,12.90
2019-05-18T05:10:29.402Z,12.82
2019-05-18T05:11:29.407Z,12.94
2019-05-18T05:12:29.373Z,12.91
2019-05-18T05:13:29.387Z,13.01
2019-05-18T05:14:29.345Z,12.97
2019-05-18T05:15:29.331Z,13.03
2019-05-18T05:16:29.325Z,13.04
2019-05-18T05:17:29.318Z,13.04
2019-05-18T05:18:29.303Z,13.13
2019-05-18T05:19:29.282Z,13.13
2019-05-18T05:20:29.288Z,13.13
2019-05-18T05:21:29.274Z,13.16
2019-05-18T05:22:29.255Z,13.18
2019-05-18T05:23:29.249Z,13.19
2019-05-18T05:24:29.239Z,13.20
2019-05-18T05:25:29.224Z,13.23
2019-05-18T05:26:29.211Z,13.23
2019-05-18T05:27:29.211Z,13.31
2019-05-18T05:28:29.199Z,13.39
2019-05-18T05:29:29.182Z,13.47
2019-05-18T05:30:29.169Z,13.56
2019-05-18T05:31:29.178Z,13.63
2019-05-18T05:32:29.148Z,13.57
2019-05-18T05:33:29.137Z,13.62
2019-05-18T05:34:29.130Z,13.59
2019-05-18T05:35:29.119Z,13.56
2019-05-18T05:36:29.107Z,13.70
2019-05-18T05:37:29.090Z,13.63
2019-05-18T05:38:29.082Z,13.65
2019-05-18T05:39:29.075Z,13.72
2019-05-18T05:40:29.057Z,13.72
2019-05-18T05:41:29.063Z,13.77
2019-05-18T05:42:29.041Z,13.72
2019-05-18T05:43:29.020Z,13.81
2019-05-18T05:44:29.020Z,13.83
2019-05-18T05:45:29.004Z,13.90
2019-05-18T05:46:29.002Z,13.78
2019-05-18T05:47:28.975Z,13.85
2019-05-18T05:48:28.978Z,13.90
2019-05-18T05:49:36.231Z,13.93
2019-05-18T05:51:11.141Z,14.00
2019-05-18T05:52:11.113Z,13.96
2019-05-18T05:53:11.100Z,13.99
2019-05-18T05:54:11.083Z,14.07
2019-05-18T05:55:11.073Z,14.08
2019-05-18T05:56:11.078Z,14.20
2019-05-18T05:57:11.051Z,14.20
2019-05-18T05:58:11.057Z,14.18
2019-05-18T05:59:11.034Z,14.23
2019-05-18T06:00:11.019Z,14.28
2019-05-18T06:01:11.006Z,14.30
2019-05-18T06:02:10.998Z,14.36
2019-05-18T06:03:10.994Z,14.36
2019-05-18T06:04:10.974Z,14.40
2019-05-18T06:05:10.968Z,14.45
2019-05-18T06:06:10.959Z,14.45
2019-05-18T06:07:10.948Z,14.43
2019-05-18T06:08:10.930Z,14.53
2019-05-18T06:09:10.925Z,14.53
2019-05-18T06:10:10.909Z,14.55
2019-05-18T06:11:10.900Z,14.58
2019-05-18T06:12:10.888Z,14.62
2019-05-18T06:13:10.886Z,14.62
2019-05-18T06:14:10.866Z,14.66
2019-05-18T06:15:10.914Z,14.72
2019-05-18T06:16:10.851Z,14.72
2019-05-18T06:17:10.833Z,14.70
2019-05-18T06:18:10.820Z,14.79
2019-05-18T06:19:10.813Z,14.82
2019-05-18T06:20:10.811Z,14.89
2019-05-18T06:21:10.786Z,14.94
2019-05-18T06:22:10.783Z,14.92
2019-05-18T06:23:10.766Z,14.97
2019-05-18T06:24:10.772Z,15.04
2019-05-18T06:25:10.750Z,15.06
2019-05-18T06:26:10.749Z,15.00
2019-05-18T06:27:10.736Z,15.07
2019-05-18T06:28:10.714Z,15.19
2019-05-18T06:29:10.696Z,15.19
2019-05-18T06:30:10.710Z,15.15
2019-05-18T06:31:10.678Z,15.21
2019-05-18T06:32:10.670Z,15.21
2019-05-18T06:33:10.680Z,15.31
2019-05-18T06:34:10.646Z,15.29
2019-05-18T06:35:10.648Z,15.37
2019-05-18T06:36:10.750Z,15.35
2019-05-18T06:37:10.611Z,15.46
2019-05-18T06:38:10.600Z,15.44
2019-05-18T06:39:10.605Z,15.44
2019-05-18T06:40:10.607Z,15.52
2019-05-18T06:41:10.576Z,15.51
2019-05-18T06:42:10.994Z,15.52
2019-05-18T06:43:10.556Z,15.70
2019-05-18T06:44:10.536Z,15.98
2019-05-18T06:45:10.530Z,16.41
2019-05-18T06:46:10.510Z,16.74
2019-05-18T06:47:10.516Z,16.86
2019-05-18T06:48:10.492Z,16.91
2019-05-18T06:49:10.525Z,16.81
2019-05-18T06:50:12.221Z,16.87
2019-05-18T06:51:10.454Z,16.79
2019-05-18T06:52:10.448Z,16.81
2019-05-18T06:53:10.430Z,16.69
2019-05-18T06:54:10.429Z,16.71
2019-05-18T06:55:10.410Z,16.58
2019-05-18T06:56:10.398Z,16.58
2019-05-18T06:57:10.398Z,16.60
2019-05-18T06:58:10.378Z,16.60
2019-05-18T06:59:10.360Z,16.60
2019-05-18T07:00:10.368Z,16.66
2019-05-18T07:01:10.345Z,16.60
2019-05-18T07:02:10.330Z,16.66
2019-05-18T07:03:10.320Z,16.71
2019-05-18T07:04:10.326Z,16.76
2019-05-18T07:05:10.300Z,16.81
2019-05-18T07:06:10.304Z,16.74
2019-05-18T07:07:10.342Z,16.75
2019-05-18T07:08:10.264Z,16.86
2019-05-18T07:09:13.979Z,16.84
2019-05-18T07:10:10.246Z,16.83
2019-05-18T07:11:10.240Z,16.81
2019-05-18T07:12:10.248Z,16.89
2019-05-18T07:13:10.214Z,16.94
2019-05-18T07:14:24.582Z,16.89
2019-05-18T07:15:11.192Z,16.90
2019-05-18T07:16:10.194Z,16.96
2019-05-18T07:17:10.165Z,16.97
2019-05-18T07:18:10.157Z,17.04
2019-05-18T07:19:10.520Z,16.97
2019-05-18T07:20:10.154Z,17.01
2019-05-18T07:21:21.283Z,17.04
2019-05-18T07:22:11.118Z,17.05
2019-05-18T07:23:10.106Z,17.04
2019-05-18T07:24:10.112Z,17.09
2019-05-18T07:25:10.082Z,17.14
2019-05-18T07:26:10.071Z,17.26
2019-05-18T07:27:10.059Z,17.24
2019-05-18T07:28:10.050Z,17.16
2019-05-18T07:29:10.095Z,17.20
2019-05-18T07:30:10.050Z,17.15
2019-05-18T07:31:10.020Z,17.33
2019-05-18T07:32:10.015Z,17.30
2019-05-18T07:33:10.006Z,17.41
2019-05-18T07:34:10.005Z,17.39
2019-05-18T07:35:09.973Z,17.39
2019-05-18T07:36:09.958Z,17.44
2019-05-18T07:37:09.958Z,17.38
2019-05-18T07:38:09.974Z,17.48
2019-05-18T07:39:09.943Z,17.48
2019-05-18T07:40:09.932Z,17.49
2019-05-18T07:41:09.903Z,17.56
2019-05-18T07:42:09.926Z,17.60
2019-05-18T07:43:09.885Z,17.59
2019-05-18T07:44:09.876Z,17.70
2019-05-18T07:45:09.862Z,17.70
2019-05-18T07:46:09.850Z,17.82
2019-05-18T07:47:09.842Z,17.83
2019-05-18T07:48:09.825Z,17.82
2019-05-18T07:49:09.830Z,17.85
2019-05-18T07:50:09.839Z,17.90
2019-05-18T07:51:09.791Z,17.94
2019-05-18T07:52:09.797Z,17.98
2019-05-18T07:53:09.768Z,17.97
2019-05-18T07:54:09.759Z,18.01
2019-05-18T07:55:09.885Z,18.05
2019-05-18T07:56:09.733Z,18.10
2019-05-18T07:57:09.721Z,18.10
2019-05-18T07:58:09.715Z,18.20
2019-05-18T07:59:09.705Z,18.22
2019-05-18T08:00:09.692Z,18.26
2019-05-18T08:01:09.714Z,18.28
2019-05-18T08:02:09.671Z,18.34
2019-05-18T08:03:09.653Z,18.34
2019-05-18T08:04:09.665Z,18.41
2019-05-18T08:05:09.639Z,18.40
2019-05-18T08:06:09.621Z,18.55
2019-05-18T08:07:09.613Z,18.90
2019-05-18T08:08:09.720Z,19.15
2019-05-18T08:09:09.586Z,19.51
2019-05-18T08:10:09.580Z,19.41
2019-05-18T08:11:09.570Z,19.37
2019-05-18T08:12:09.577Z,19.24
2019-05-18T08:13:09.547Z,19.15
2019-05-18T08:14:09.542Z,19.14
2019-05-18T08:15:09.530Z,19.08
2019-05-18T08:16:09.541Z,18.98
2019-05-18T08:17:09.547Z,18.93
2019-05-18T08:18:09.525Z,18.93
2019-05-18T08:19:09.485Z,18.96
2019-05-18T08:20:09.485Z,18.96
2019-05-18T08:21:09.460Z,19.04
2019-05-18T08:22:09.452Z,19.11
2019-05-18T08:23:09.447Z,19.12
2019-05-18T08:24:09.460Z,19.08
2019-05-18T08:25:09.418Z,19.04
2019-05-18T08:26:09.407Z,19.11
2019-05-18T08:27:09.396Z,19.08
2019-05-18T08:28:09.418Z,19.18
2019-05-18T08:29:09.393Z,19.04
2019-05-18T08:30:09.382Z,19.12
2019-05-18T08:31:09.386Z,19.14
2019-05-18T08:32:09.348Z,19.07
2019-05-18T08:33:09.373Z,19.11
2019-05-18T08:34:09.337Z,19.11
2019-05-18T08:35:09.333Z,19.09
2019-05-18T08:36:09.345Z,19.18
2019-05-18T08:37:09.296Z,19.12
2019-05-18T08:38:09.281Z,19.12
2019-05-18T08:39:09.277Z,19.16
2019-05-18T08:40:09.260Z,19.18
2019-05-18T08:41:09.253Z,19.19
2019-05-18T08:42:09.243Z,19.19
2019-05-18T08:43:09.225Z,19.30
2019-05-18T08:44:09.215Z,19.34
2019-05-18T08:45:09.239Z,19.37
2019-05-18T08:46:09.204Z,19.34
2019-05-18T08:47:09.182Z,19.31
2019-05-18T08:48:09.176Z,19.34
2019-05-18T08:49:09.165Z,19.49
2019-05-18T08:50:09.161Z,19.48
2019-05-18T08:51:09.141Z,19.49
2019-05-18T08:52:09.147Z,19.64
2019-05-18T08:53:09.215Z,19.64
2019-05-18T08:54:09.117Z,19.74
2019-05-18T08:55:09.096Z,19.70
2019-05-18T08:56:09.105Z,19.71
2019-05-18T08:57:09.077Z,19.79
2019-05-18T08:58:09.063Z,19.84
2019-05-18T08:59:09.054Z,19.88
2019-05-18T09:00:09.041Z,19.82
2019-05-18T09:01:09.021Z,19.77
2019-05-18T09:02:09.051Z,19.81
2019-05-18T09:03:09.008Z,19.84
2019-05-18T09:04:08.997Z,19.92
2019-05-18T09:05:09.020Z,19.91
2019-05-18T09:06:08.965Z,19.92
2019-05-18T09:07:08.996Z,20.04
2019-05-18T09:08:08.949Z,20.07
2019-05-18T09:09:08.938Z,20.02
2019-05-18T09:10:08.986Z,20.07
2019-05-18T09:11:08.969Z,20.16
2019-05-18T09:12:08.918Z,20.16
2019-05-18T09:13:08.890Z,20.18
2019-05-18T09:14:08.877Z,20.24
2019-05-18T09:15:08.890Z,20.26
2019-05-18T09:16:08.885Z,20.26
2019-05-18T09:17:08.852Z,20.39
2019-05-18T09:18:08.843Z,20.39
2019-05-18T09:19:08.843Z,20.41
2019-05-18T09:20:08.816Z,20.47
2019-05-18T09:21:08.809Z,20.39
2019-05-18T09:22:22.467Z,20.56
2019-05-18T09:23:09.785Z,20.55
2019-05-18T09:24:08.775Z,20.58
2019-05-18T09:25:08.767Z,20.58
2019-05-18T09:26:08.754Z,20.63
2019-05-18T09:27:08.742Z,20.77
2019-05-18T09:28:08.737Z,20.97
2019-05-18T09:29:08.715Z,21.43
2019-05-18T09:30:09.053Z,22.51
2019-05-18T09:31:08.698Z,23.31
2019-05-18T09:32:08.687Z,23.47
2019-05-18T09:33:08.671Z,23.28
2019-05-18T09:34:08.661Z,23.03
2019-05-18T09:35:08.673Z,22.68
2019-05-18T09:36:08.635Z,22.36
2019-05-18T09:37:08.640Z,22.07
2019-05-18T09:38:08.619Z,22.00
2019-05-18T09:39:08.602Z,21.91
2019-05-18T09:40:08.613Z,21.79
2019-05-18T09:41:08.611Z,21.83
2019-05-18T09:42:08.576Z,21.91
2019-05-18T09:43:08.577Z,21.89
2019-05-18T09:44:08.550Z,21.77
2019-05-18T09:45:08.546Z,21.73
2019-05-18T09:46:08.539Z,21.75
2019-05-18T09:47:08.523Z,21.70
2019-05-18T09:48:08.509Z,21.73
2019-05-18T09:49:08.503Z,21.76
2019-05-18T09:50:08.493Z,21.76
2019-05-18T09:51:08.483Z,21.67
2019-05-18T09:52:08.487Z,21.66
2019-05-18T09:53:08.467Z,21.60
2019-05-18T09:54:08.441Z,21.64
2019-05-18T09:55:08.431Z,21.62
2019-05-18T09:56:08.420Z,21.60
2019-05-18T09:57:08.412Z,21.57
2019-05-18T09:58:08.411Z,21.69
2019-05-18T09:59:08.380Z,21.55
2019-05-18T10:00:08.381Z,21.75
2019-05-18T10:01:08.378Z,21.64
2019-05-18T10:02:08.355Z,21.73
2019-05-18T10:03:08.366Z,21.72
2019-05-18T10:04:08.325Z,21.79
2019-05-18T10:05:08.320Z,21.83
2019-05-18T10:06:08.329Z,21.85
2019-05-18T10:07:08.328Z,21.85
2019-05-18T10:08:08.349Z,21.91
2019-05-18T10:09:08.297Z,21.93
2019-05-18T10:10:08.281Z,21.95
2019-05-18T10:11:08.247Z,21.98
2019-05-18T10:12:08.244Z,21.96
2019-05-18T10:13:08.226Z,22.04
2019-05-18T10:14:08.223Z,22.11
2019-05-18T10:15:08.205Z,22.08
2019-05-18T10:16:08.210Z,22.15
2019-05-18T10:17:08.227Z,22.06
2019-05-18T10:18:08.214Z,22.14
2019-05-18T10:19:08.199Z,22.17
2019-05-18T10:20:08.156Z,22.20
2019-05-18T10:21:08.148Z,22.22
2019-05-18T10:22:08.143Z,22.20
2019-05-18T10:23:12.848Z,22.14
2019-05-18T10:24:09.109Z,22.14
2019-05-18T10:25:08.094Z,22.30
2019-05-18T10:26:08.102Z,22.20
2019-05-18T10:27:08.114Z,22.20
2019-05-18T10:28:08.074Z,22.00
2019-05-18T10:29:08.058Z,22.20
2019-05-18T10:30:08.048Z,22.38
2019-05-18T10:31:08.041Z,22.55
2019-05-18T10:32:08.047Z,22.93
2019-05-18T10:33:08.011Z,22.96
2019-05-18T10:34:08.017Z,22.85
2019-05-18T10:35:07.997Z,22.88
2019-05-18T10:36:07.973Z,22.93
2019-05-18T10:37:07.972Z,22.91
2019-05-18T10:38:07.954Z,22.78
2019-05-18T10:39:07.954Z,22.60
2019-05-18T10:40:07.930Z,22.63
2019-05-18T10:41:07.925Z,22.68
2019-05-18T10:42:07.910Z,22.78
2019-05-18T10:43:07.911Z,22.84
2019-05-18T10:44:07.894Z,22.88
2019-05-18T10:45:07.876Z,23.03
2019-05-18T10:46:07.864Z,23.08
2019-05-18T10:47:07.857Z,23.08
2019-05-18T10:48:07.895Z,23.18
2019-05-18T10:49:07.830Z,23.23
2019-05-18T10:50:07.821Z,23.39
2019-05-18T10:51:07.819Z,23.55
2019-05-18T10:52:07.807Z,23.88
2019-05-18T10:53:07.822Z,23.83
2019-05-18T10:54:07.777Z,24.63
2019-05-18T10:55:07.776Z,24.40
2019-05-18T10:56:07.758Z,24.23
2019-05-18T10:57:07.747Z,23.80
2019-05-18T10:58:07.734Z,25.01
2019-05-18T10:59:07.758Z,25.46
2019-05-18T11:00:07.741Z,26.28
2019-05-18T11:01:07.717Z,27.18
2019-05-18T11:02:07.725Z,27.96
2019-05-18T11:03:07.680Z,28.51
2019-05-18T11:04:07.696Z,29.13
2019-05-18T11:05:07.680Z,28.42
2019-05-18T11:06:07.655Z,27.18
2019-05-18T11:07:07.642Z,26.18
2019-05-18T11:08:07.646Z,25.99
2019-05-18T11:09:07.623Z,25.31
2019-05-18T11:10:07.610Z,24.98
2019-05-18T11:11:07.589Z,24.50
2019-05-18T11:12:07.587Z,24.18
2019-05-18T11:13:07.581Z,23.88
2019-05-18T11:14:07.572Z,23.66
2019-05-18T11:15:07.564Z,24.03
2019-05-18T11:16:07.557Z,23.73
2019-05-18T11:17:07.528Z,23.59
2019-05-18T11:18:07.545Z,23.71
2019-05-18T11:19:07.538Z,24.76
2019-05-18T11:20:07.499Z,24.85
2019-05-18T11:21:07.482Z,25.96
2019-05-18T11:22:07.526Z,25.50
2019-05-18T11:23:07.462Z,25.03
2019-05-18T11:24:07.459Z,24.96
2019-05-18T11:25:07.453Z,24.54
2019-05-18T11:26:07.520Z,24.24
2019-05-18T11:27:07.433Z,23.96
2019-05-18T11:28:07.404Z,23.76
2019-05-18T11:29:07.409Z,23.46
2019-05-18T11:30:07.533Z,23.20
2019-05-18T11:31:07.372Z,23.15
2019-05-18T11:32:07.375Z,23.00
2019-05-18T11:33:07.347Z,22.96
2019-05-18T11:34:07.349Z,23.78
2019-05-18T11:35:07.330Z,23.88
2019-05-18T11:36:07.328Z,23.59
2019-05-18T11:37:07.306Z,23.28
2019-05-18T11:38:07.298Z,23.18
2019-05-18T11:39:07.294Z,23.09
2019-05-18T11:40:07.284Z,22.85
2019-05-18T11:41:07.266Z,22.84
2019-05-18T11:42:07.246Z,22.83
2019-05-18T11:43:07.244Z,22.78
2019-05-18T11:44:10.252Z,22.76
2019-05-18T11:45:07.224Z,22.62
2019-05-18T11:46:07.220Z,22.62
2019-05-18T11:47:07.236Z,22.63
2019-05-18T11:48:07.186Z,22.59
2019-05-18T11:49:07.186Z,22.57
2019-05-18T11:50:07.177Z,22.87
2019-05-18T11:51:07.157Z,23.54
2019-05-18T11:52:07.182Z,24.26
2019-05-18T11:53:07.142Z,24.54
2019-05-18T11:54:07.136Z,24.10
2019-05-18T11:55:07.112Z,24.35
2019-05-18T11:56:07.107Z,24.33
2019-05-18T11:57:07.089Z,23.77
2019-05-18T11:58:07.104Z,23.44
2019-05-18T11:59:07.072Z,23.24
2019-05-18T12:00:07.068Z,23.09
2019-05-18T12:01:07.042Z,23.00
2019-05-18T12:02:07.039Z,23.28
2019-05-18T12:03:07.033Z,23.06
2019-05-18T12:04:07.011Z,23.34
2019-05-18T12:05:06.994Z,24.11
2019-05-18T12:06:06.984Z,24.60
2019-05-18T12:07:06.977Z,24.92
2019-05-18T12:08:06.977Z,25.11
2019-05-18T12:09:06.952Z,24.93
2019-05-18T12:10:07.008Z,24.65
2019-05-18T12:11:06.930Z,24.50
2019-05-18T12:12:06.918Z,24.21
2019-05-18T12:13:06.914Z,24.03
2019-05-18T12:14:06.901Z,23.84
2019-05-18T12:15:06.886Z,23.66
2019-05-18T12:16:06.879Z,23.65
2019-05-18T12:17:06.871Z,23.58
2019-05-18T12:18:06.853Z,23.59
2019-05-18T12:19:06.845Z,23.51
2019-05-18T12:20:06.848Z,23.25
2019-05-18T12:21:06.825Z,23.20
2019-05-18T12:22:06.803Z,23.10
2019-05-18T12:23:08.299Z,23.03
2019-05-18T12:24:15.300Z,23.15
2019-05-18T12:25:07.787Z,23.27
2019-05-18T12:26:06.770Z,23.51
2019-05-18T12:27:06.773Z,23.58
2019-05-18T12:28:06.772Z,23.71
2019-05-18T12:29:06.734Z,23.58
2019-05-18T12:30:06.723Z,23.39
2019-05-18T12:31:06.716Z,23.36
2019-05-18T12:32:06.703Z,23.15
2019-05-18T12:33:06.683Z,23.13
2019-05-18T12:34:06.683Z,23.08
2019-05-18T12:35:06.662Z,23.20
2019-05-18T12:36:06.677Z,23.47
2019-05-18T12:37:06.647Z,23.58
2019-05-18T12:38:06.632Z,23.78
2019-05-18T12:39:06.637Z,23.76
2019-05-18T12:40:06.716Z,23.77
2019-05-18T12:41:06.592Z,23.78
2019-05-18T12:42:07.640Z,23.88
2019-05-18T12:43:06.576Z,23.92
2019-05-18T12:44:06.564Z,23.99
2019-05-18T12:45:06.591Z,24.13
2019-05-18T12:46:06.548Z,24.17
2019-05-18T12:47:06.540Z,24.10
2019-05-18T12:48:06.525Z,23.92
2019-05-18T12:49:06.508Z,23.78
2019-05-18T12:50:06.491Z,23.74
2019-05-18T12:51:06.492Z,23.61
2019-05-18T12:52:06.471Z,23.69
2019-05-18T12:53:06.468Z,23.91